Time;durP1;ratioP1;P1;durP2;ratioP2;P2;SDS_P1;SDS_P2;PMS_P1;PMS_P2;Temp;Humidity;BMP_temperature;BMP_pressure;BME280_temperature;BME280_humidity;BME280_pressure;Samples;Min_cycle;Max_cycle;Signal;HPM_P1;HPM_P2
2022/05/31 00:00:27;;;;;;;4.93;2.72;;;6.30;99.90;;;;;;5014566;28;20055;-87
2022/05/31 00:02:55;;;;;;;2.50;2.30;;;6.30;99.90;;;;;;5032435;28;20497;-87
2022/05/31 00:05:21;;;;;;;3.85;2.33;;;6.30;99.90;;;;;;5029653;28;20045;-88
2022/05/31 00:07:46;;;;;;;3.60;2.75;;;6.40;99.90;;;;;;4982707;28;20049;-88
2022/05/31 00:10:14;;;;;;;4.45;2.60;;;6.50;99.90;;;;;;5028545;28;20168;-89
2022/05/31 00:12:41;;;;;;;2.95;2.20;;;6.50;99.90;;;;;;5017873;28;20057;-88
2022/05/31 00:15:09;;;;;;;3.22;2.53;;;6.60;99.90;;;;;;5014067;28;20038;-87
2022/05/31 00:17:35;;;;;;;2.45;2.05;;;6.60;99.90;;;;;;5032590;28;20040;-88
2022/05/31 00:20:02;;;;;;;3.92;2.42;;;6.70;99.90;;;;;;5013525;28;20107;-88
2022/05/31 00:22:28;;;;;;;3.42;2.50;;;6.70;99.90;;;;;;4999056;28;20045;-88
2022/05/31 00:24:54;;;;;;;2.88;2.38;;;6.80;99.90;;;;;;5029834;28;20052;-88
2022/05/31 00:27:23;;;;;;;4.75;3.08;;;6.90;99.90;;;;;;5027831;28;20041;-87
2022/05/31 00:29:50;;;;;;;5.13;3.58;;;6.90;99.90;;;;;;5036919;28;20038;-88
2022/05/31 00:32:20;;;;;;;3.58;3.10;;;7.00;99.90;;;;;;5034951;28;20048;-87
2022/05/31 00:34:48;;;;;;;3.80;3.10;;;7.10;99.90;;;;;;5032192;28;20579;-89
2022/05/31 00:37:14;;;;;;;5.80;2.97;;;7.10;99.90;;;;;;5018305;28;20446;-88
2022/05/31 00:39:40;;;;;;;2.85;2.55;;;7.10;99.90;;;;;;5007769;28;20507;-88
2022/05/31 00:42:12;;;;;;;5.70;2.13;;;7.10;99.90;;;;;;5003126;28;20145;-88
2022/05/31 00:44:39;;;;;;;2.80;1.80;;;7.20;99.90;;;;;;5028449;28;20041;-88
2022/05/31 00:47:24;;;;;;;2.85;2.03;;;7.20;99.90;;;;;;5029613;28;20045;-88
2022/05/31 00:49:55;;;;;;;2.58;1.90;;;7.20;99.90;;;;;;5004286;28;20867;-88
2022/05/31 00:52:28;;;;;;;3.85;2.00;;;7.30;99.90;;;;;;5044430;28;20037;-89
2022/05/31 00:55:03;;;;;;;2.92;2.00;;;7.30;99.90;;;;;;5030452;28;20045;-88
2022/05/31 00:57:32;;;;;;;5.13;3.10;;;7.40;99.90;;;;;;5015089;28;20049;-88
2022/05/31 01:00:04;;;;;;;3.97;2.90;;;7.40;99.90;;;;;;5026439;28;20096;-88
2022/05/31 01:02:30;;;;;;;8.55;5.10;;;7.40;99.90;;;;;;5008864;28;20116;-88
2022/05/31 01:05:00;;;;;;;4.70;3.03;;;7.50;99.90;;;;;;5037797;28;20050;-88
2022/05/31 01:07:26;;;;;;;4.20;3.30;;;7.50;99.90;;;;;;5016047;28;20380;-87
2022/05/31 01:09:53;;;;;;;8.48;3.20;;;7.50;99.90;;;;;;5063167;28;20046;-88
2022/05/31 01:12:20;;;;;;;5.88;3.85;;;7.50;99.90;;;;;;5033429;28;20041;-88
2022/05/31 01:14:45;;;;;;;5.40;3.30;;;7.60;99.90;;;;;;5018912;28;20538;-87
2022/05/31 01:17:18;;;;;;;4.70;3.45;;;7.50;99.90;;;;;;5015227;28;20057;-87
2022/05/31 01:19:56;;;;;;;4.82;3.35;;;7.60;99.90;;;;;;5016209;28;20139;-88
2022/05/31 01:22:35;;;;;;;3.92;3.25;;;7.60;99.90;;;;;;5033445;28;20052;-88
2022/05/31 01:25:35;;;;;;;3.88;3.03;;;7.50;99.90;;;;;;5031843;28;20049;-87
2022/05/31 01:28:07;;;;;;;3.65;2.90;;;7.60;99.90;;;;;;5019564;28;20053;-87
2022/05/31 01:30:42;;;;;;;4.20;3.13;;;7.60;99.90;;;;;;4998577;28;20510;-87
2022/05/31 01:33:17;;;;;;;6.05;3.80;;;7.60;99.90;;;;;;5008629;28;20049;-88
2022/05/31 01:35:43;;;;;;;6.90;4.53;;;7.60;99.90;;;;;;4999772;28;20056;-88
2022/05/31 01:38:12;;;;;;;5.43;4.20;;;7.60;99.90;;;;;;5002901;28;20046;-88
2022/05/31 01:40:57;;;;;;;5.35;4.60;;;7.60;99.90;;;;;;5006288;28;20049;-88
2022/05/31 01:43:23;;;;;;;5.78;4.63;;;7.60;99.90;;;;;;5033842;28;20555;-88
2022/05/31 01:46:19;;;;;;;6.13;4.32;;;7.60;99.90;;;;;;5013788;28;20128;-88
2022/05/31 01:48:45;;;;;;;7.07;5.00;;;7.60;99.90;;;;;;5015925;28;20487;-88
2022/05/31 01:51:12;;;;;;;6.15;4.82;;;7.60;99.90;;;;;;5036167;28;20395;-87
2022/05/31 01:53:38;;;;;;;5.68;4.07;;;7.70;99.90;;;;;;5036324;28;20045;-88
2022/05/31 01:56:06;;;;;;;7.90;4.30;;;7.70;99.90;;;;;;5041326;28;20045;-88
2022/05/31 01:58:35;;;;;;;7.28;3.88;;;7.70;99.90;;;;;;5033232;28;20487;-88
2022/05/31 02:01:05;;;;;;;5.15;4.13;;;7.70;99.90;;;;;;5012453;28;20049;-87
2022/05/31 02:03:33;;;;;;;6.70;4.43;;;7.70;99.90;;;;;;5026445;28;20046;-87
2022/05/31 02:05:59;;;;;;;6.85;5.50;;;7.80;99.90;;;;;;5014731;28;20050;-87
2022/05/31 02:08:29;;;;;;;7.15;6.10;;;7.70;99.90;;;;;;5013988;28;20049;-87
2022/05/31 02:10:56;;;;;;;7.00;5.70;;;7.70;99.90;;;;;;5035381;28;20053;-87
2022/05/31 02:13:22;;;;;;;6.78;5.53;;;7.70;99.90;;;;;;5030334;28;20509;-88
2022/05/31 02:15:48;;;;;;;7.18;5.35;;;7.70;99.90;;;;;;4999374;28;20422;-87
2022/05/31 02:18:14;;;;;;;9.18;5.45;;;7.70;99.90;;;;;;5027519;28;20103;-87
2022/05/31 02:20:40;;;;;;;6.13;5.45;;;7.70;99.90;;;;;;5048021;28;20045;-87
2022/05/31 02:23:06;;;;;;;7.95;6.47;;;7.70;99.90;;;;;;5015830;28;20091;-88
2022/05/31 02:25:32;;;;;;;8.02;6.85;;;7.80;99.90;;;;;;5031899;28;20076;-88
2022/05/31 02:27:58;;;;;;;8.45;6.47;;;7.70;99.90;;;;;;5007570;28;20099;-88
2022/05/31 02:30:27;;;;;;;10.38;7.00;;;7.70;99.90;;;;;;5043143;28;20049;-88
2022/05/31 02:32:52;;;;;;;6.97;6.05;;;7.70;99.90;;;;;;5014966;28;20038;-88
2022/05/31 02:35:18;;;;;;;10.02;6.30;;;7.80;99.90;;;;;;5060571;28;20394;-87
2022/05/31 02:37:44;;;;;;;8.07;5.80;;;7.80;99.90;;;;;;4997950;28;20041;-89
2022/05/31 02:40:11;;;;;;;5.70;5.07;;;7.80;99.90;;;;;;5047330;28;20088;-88
2022/05/31 02:42:37;;;;;;;7.57;4.70;;;7.80;99.90;;;;;;5045935;28;20099;-87
2022/05/31 02:45:12;;;;;;;6.68;5.10;;;7.90;99.90;;;;;;5043662;28;20128;-87
2022/05/31 02:47:39;;;;;;;6.70;5.30;;;7.90;99.90;;;;;;5063473;28;20048;-88
2022/05/31 02:50:05;;;;;;;7.25;5.30;;;7.90;99.90;;;;;;5027499;28;20480;-87
2022/05/31 02:52:32;;;;;;;6.25;5.65;;;7.90;99.90;;;;;;4996284;28;20053;-87
2022/05/31 02:54:58;;;;;;;9.65;5.80;;;7.90;99.90;;;;;;5040628;28;20092;-88
2022/05/31 02:57:24;;;;;;;8.27;5.82;;;8.00;99.90;;;;;;5047345;28;20053;-87
2022/05/31 02:59:49;;;;;;;7.18;5.35;;;8.00;99.90;;;;;;5036171;28;20091;-88
2022/05/31 03:02:15;;;;;;;8.35;6.45;;;8.10;99.90;;;;;;5027731;28;20053;-87
2022/05/31 03:04:41;;;;;;;6.05;5.10;;;8.00;99.90;;;;;;5027129;28;20095;-88
2022/05/31 03:07:09;;;;;;;8.48;6.25;;;8.00;99.90;;;;;;5040330;28;20053;-88
2022/05/31 03:09:34;;;;;;;7.75;6.45;;;8.00;99.90;;;;;;5031400;28;20044;-89
2022/05/31 03:12:13;;;;;;;7.93;6.40;;;8.00;99.90;;;;;;5029718;28;20125;-88
2022/05/31 03:15:01;;;;;;;6.18;5.57;;;8.00;99.90;;;;;;5012734;28;20076;-88
2022/05/31 03:17:36;;;;;;;7.93;5.93;;;8.00;99.90;;;;;;5015323;28;20049;-88
2022/05/31 03:20:11;;;;;;;6.90;5.55;;;8.00;99.90;;;;;;5023413;28;20045;-88
2022/05/31 03:22:41;;;;;;;8.95;5.43;;;8.00;99.90;;;;;;5032646;28;20395;-88
2022/05/31 03:25:12;;;;;;;9.90;5.88;;;8.00;99.90;;;;;;5020780;28;20862;-88
2022/05/31 03:27:38;;;;;;;6.88;6.18;;;8.00;99.90;;;;;;5013688;28;20037;-88
2022/05/31 03:30:05;;;;;;;9.23;6.00;;;8.00;99.90;;;;;;5011897;28;20040;-88
2022/05/31 03:32:34;;;;;;;7.95;6.45;;;8.00;99.90;;;;;;5045506;28;20053;-88
2022/05/31 03:34:59;;;;;;;8.32;6.63;;;8.00;99.90;;;;;;5030296;28;20112;-87
2022/05/31 03:37:25;;;;;;;7.13;5.78;;;7.90;99.90;;;;;;5028351;28;20137;-88
2022/05/31 03:39:51;;;;;;;6.75;5.40;;;8.00;99.90;;;;;;5029956;28;20060;-89
2022/05/31 03:42:16;;;;;;;6.65;5.57;;;8.00;99.90;;;;;;4981604;28;20049;-87
2022/05/31 03:44:42;;;;;;;11.18;6.53;;;8.00;99.90;;;;;;5022513;28;20056;-87
2022/05/31 03:47:08;;;;;;;6.68;5.65;;;8.00;99.90;;;;;;5046012;28;20095;-88
2022/05/31 03:49:34;;;;;;;8.52;5.85;;;8.10;99.90;;;;;;5014707;28;20163;-87
2022/05/31 03:51:59;;;;;;;9.07;6.15;;;8.10;99.90;;;;;;4996931;28;20045;-87
2022/05/31 03:54:26;;;;;;;9.52;7.10;;;8.20;99.90;;;;;;4979744;28;20092;-87
2022/05/31 03:56:52;;;;;;;8.10;6.20;;;8.10;99.90;;;;;;5037504;28;20046;-88
2022/05/31 03:59:18;;;;;;;8.02;6.30;;;8.10;99.90;;;;;;5029326;28;20102;-88
2022/05/31 04:01:44;;;;;;;8.52;6.00;;;8.10;99.90;;;;;;5032091;28;20057;-87
2022/05/31 04:04:10;;;;;;;7.60;5.90;;;8.30;99.90;;;;;;5009875;28;20304;-88
2022/05/31 04:06:36;;;;;;;9.00;6.95;;;8.30;99.90;;;;;;5002310;28;20045;-87
2022/05/31 04:09:03;;;;;;;10.32;6.10;;;8.30;99.90;;;;;;5024788;28;20041;-87
2022/05/31 04:11:30;;;;;;;8.18;5.93;;;8.30;99.90;;;;;;5028082;28;20145;-88
2022/05/31 04:13:55;;;;;;;6.43;5.47;;;8.40;99.90;;;;;;5029173;28;20506;-87
2022/05/31 04:16:22;;;;;;;7.25;6.07;;;8.40;99.90;;;;;;5028609;28;20064;-88
2022/05/31 04:18:48;;;;;;;7.38;6.50;;;8.50;99.90;;;;;;5008682;28;20046;-87
2022/05/31 04:21:19;;;;;;;7.72;5.63;;;8.60;99.90;;;;;;5043672;28;20647;-88
2022/05/31 04:23:58;;;;;;;7.15;6.03;;;8.60;99.90;;;;;;5012011;28;20052;-88
2022/05/31 04:26:41;;;;;;;9.35;5.60;;;8.70;99.90;;;;;;5030057;28;20043;-87
2022/05/31 04:29:06;;;;;;;6.57;5.63;;;8.70;99.90;;;;;;5013806;28;20154;-87
2022/05/31 04:31:32;;;;;;;7.57;6.07;;;8.80;99.90;;;;;;4997445;28;20134;-87
2022/05/31 04:33:58;;;;;;;8.40;6.28;;;8.80;99.90;;;;;;5029717;28;20173;-87
2022/05/31 04:36:24;;;;;;;8.10;6.40;;;8.80;99.90;;;;;;5013410;28;20099;-87
2022/05/31 04:38:49;;;;;;;7.85;5.72;;;8.90;99.90;;;;;;5012278;28;20159;-88
2022/05/31 04:41:20;;;;;;;8.05;6.05;;;8.90;99.90;;;;;;5009246;28;20046;-86
2022/05/31 04:43:45;;;;;;;7.82;6.18;;;8.90;99.90;;;;;;5024455;28;20403;-89
2022/05/31 04:46:17;;;;;;;8.32;6.30;;;8.90;99.90;;;;;;5015218;28;20049;-86
2022/05/31 04:48:44;;;;;;;8.35;6.40;;;9.00;99.90;;;;;;5015757;28;20041;-86
2022/05/31 04:51:11;;;;;;;9.02;6.57;;;9.00;99.90;;;;;;5035125;28;20406;-86
2022/05/31 04:53:37;;;;;;;8.05;6.32;;;9.00;99.90;;;;;;5030294;28;20051;-87
2022/05/31 04:56:05;;;;;;;6.57;5.75;;;9.10;99.90;;;;;;5022006;28;20049;-86
2022/05/31 04:58:31;;;;;;;7.65;6.32;;;9.20;99.90;;;;;;4991324;28;20565;-88
2022/05/31 05:00:57;;;;;;;7.00;6.30;;;9.30;99.90;;;;;;5023353;28;20080;-87
2022/05/31 05:03:23;;;;;;;6.57;5.88;;;9.40;99.90;;;;;;5023988;28;20128;-87
2022/05/31 05:05:48;;;;;;;8.73;6.97;;;9.40;99.90;;;;;;5034458;28;20057;-86
2022/05/31 05:08:14;;;;;;;6.85;6.03;;;9.40;99.90;;;;;;5009951;28;20092;-88
2022/05/31 05:10:46;;;;;;;8.45;6.65;;;9.50;99.90;;;;;;5021407;28;20056;-87
2022/05/31 05:13:12;;;;;;;9.32;5.93;;;9.50;99.90;;;;;;5026811;28;20069;-86
2022/05/31 05:15:40;;;;;;;8.05;6.55;;;9.60;99.90;;;;;;5011030;28;20033;-87
2022/05/31 05:18:06;;;;;;;9.15;5.88;;;9.70;99.90;;;;;;5013922;28;20049;-87
2022/05/31 05:20:35;;;;;;;8.68;6.97;;;9.70;99.90;;;;;;5012893;28;20046;-87
2022/05/31 05:23:03;;;;;;;7.65;6.63;;;9.80;99.90;;;;;;5001380;28;20079;-87
2022/05/31 05:25:29;;;;;;;8.23;6.32;;;9.90;99.90;;;;;;5016814;28;20506;-87
2022/05/31 05:27:55;;;;;;;6.93;6.15;;;10.00;99.90;;;;;;5016888;28;20049;-87
2022/05/31 05:30:38;;;;;;;7.05;6.32;;;10.00;99.90;;;;;;4999689;28;20447;-87
2022/05/31 05:33:04;;;;;;;9.90;6.75;;;10.10;99.90;;;;;;5021713;28;20041;-88
2022/05/31 05:35:30;;;;;;;10.57;7.50;;;10.20;99.90;;;;;;4998718;28;20049;-87
2022/05/31 05:37:55;;;;;;;8.63;6.88;;;10.30;99.90;;;;;;5010164;28;20045;-87
2022/05/31 05:40:21;;;;;;;9.63;7.22;;;10.40;99.90;;;;;;5027610;28;20049;-87
2022/05/31 05:42:47;;;;;;;10.10;7.07;;;10.40;99.90;;;;;;4981240;28;20057;-88
2022/05/31 05:45:13;;;;;;;8.65;6.68;;;10.50;99.90;;;;;;5030844;28;20049;-86
2022/05/31 05:47:39;;;;;;;9.32;7.28;;;10.50;99.90;;;;;;5034773;28;20049;-89
2022/05/31 05:50:07;;;;;;;10.98;7.32;;;10.60;99.90;;;;;;5011734;28;20502;-90
2022/05/31 05:52:33;;;;;;;11.00;6.80;;;10.50;99.90;;;;;;5033872;28;20056;-89
2022/05/31 05:54:59;;;;;;;8.73;7.22;;;10.60;99.90;;;;;;5014092;28;20049;-90
2022/05/31 05:57:24;;;;;;;9.30;7.40;;;10.60;99.90;;;;;;5009881;28;20041;-89
2022/05/31 05:59:50;;;;;;;7.95;6.40;;;10.70;99.90;;;;;;5002184;28;20049;-89
2022/05/31 06:02:27;;;;;;;8.52;6.88;;;10.80;99.90;;;;;;5031154;28;20061;-89
2022/05/31 06:05:09;;;;;;;6.93;6.20;;;11.00;99.90;;;;;;5010535;28;20049;-85
2022/05/31 06:07:42;;;;;;;8.60;6.22;;;11.20;99.90;;;;;;5031509;28;20033;-87
2022/05/31 06:10:30;;;;;;;7.75;6.95;;;11.30;99.90;;;;;;5006193;28;20049;-87
2022/05/31 06:13:04;;;;;;;10.90;7.07;;;11.50;99.90;;;;;;5021096;28;20059;-88
2022/05/31 06:15:35;;;;;;;8.35;5.95;;;11.60;99.90;;;;;;5028171;28;20108;-88
2022/05/31 06:18:08;;;;;;;7.45;6.07;;;11.70;99.90;;;;;;5063528;28;20132;-88
2022/05/31 06:20:34;;;;;;;8.82;5.95;;;11.80;99.90;;;;;;5044666;28;20053;-88
2022/05/31 06:23:00;;;;;;;7.00;5.97;;;11.90;99.90;;;;;;5044341;28;20048;-86
2022/05/31 06:25:26;;;;;;;8.27;6.25;;;11.90;99.90;;;;;;5027402;28;20171;-87
2022/05/31 06:27:52;;;;;;;8.85;6.50;;;12.00;99.90;;;;;;5011571;28;20124;-87
2022/05/31 06:30:18;;;;;;;8.40;6.32;;;12.10;99.90;;;;;;5008226;28;20041;-87
2022/05/31 06:32:44;;;;;;;5.75;5.05;;;12.20;99.90;;;;;;4990197;28;20101;-87
2022/05/31 06:35:10;;;;;;;6.00;5.40;;;12.20;99.90;;;;;;5007226;28;20050;-87
2022/05/31 06:37:36;;;;;;;6.40;5.45;;;12.30;99.90;;;;;;5013060;28;20033;-87
2022/05/31 06:40:02;;;;;;;6.47;5.65;;;12.40;99.90;;;;;;5008435;28;20412;-87
2022/05/31 06:42:31;;;;;;;6.20;5.30;;;12.40;99.90;;;;;;5024339;28;20038;-86
2022/05/31 06:44:57;;;;;;;7.00;5.70;;;12.60;99.90;;;;;;5014196;28;20041;-88
2022/05/31 06:47:23;;;;;;;6.95;5.18;;;12.60;99.90;;;;;;5030624;28;20041;-88
2022/05/31 06:49:48;;;;;;;6.50;5.72;;;12.70;99.90;;;;;;4997478;28;20055;-87
2022/05/31 06:57:46;;;;;;;7.15;5.07;;;13.00;99.90;;;;;;5030626;28;20406;-87
2022/05/31 07:00:15;;;;;;;8.93;5.28;;;13.20;99.90;;;;;;5030566;28;20056;-87
2022/05/31 07:02:41;;;;;;;6.30;5.10;;;13.30;99.90;;;;;;5029770;28;20057;-86
2022/05/31 07:05:10;;;;;;;6.05;5.32;;;13.40;99.90;;;;;;5013815;28;20175;-87
2022/05/31 07:07:36;;;;;;;5.70;4.70;;;13.60;99.90;;;;;;5013289;28;20537;-86
2022/05/31 07:10:03;;;;;;;6.80;5.15;;;13.70;99.90;;;;;;5061443;28;20191;-86
2022/05/31 07:12:30;;;;;;;6.22;4.93;;;13.90;99.90;;;;;;5028497;28;20052;-87
2022/05/31 07:14:55;;;;;;;6.43;4.75;;;14.10;99.90;;;;;;5010910;28;20049;-88
2022/05/31 07:17:21;;;;;;;6.10;4.28;;;14.20;99.90;;;;;;5025955;28;20060;-87
2022/05/31 07:19:47;;;;;;;4.93;4.25;;;14.40;99.90;;;;;;5013216;28;20037;-86
2022/05/31 07:22:15;;;;;;;6.72;4.88;;;14.60;99.90;;;;;;4992013;28;20073;-87
2022/05/31 07:24:40;;;;;;;4.57;3.88;;;14.80;99.90;;;;;;5011523;28;20110;-88
2022/05/31 07:27:06;;;;;;;5.35;4.20;;;15.10;99.90;;;;;;5011777;28;20558;-88
2022/05/31 07:29:32;;;;;;;4.75;4.05;;;15.40;99.90;;;;;;5030362;28;20042;-87
2022/05/31 07:31:58;;;;;;;6.38;3.78;;;15.60;99.90;;;;;;5007329;28;20058;-87
2022/05/31 07:34:24;;;;;;;5.35;3.47;;;15.80;99.90;;;;;;5010161;28;20128;-87
2022/05/31 07:36:49;;;;;;;4.45;3.60;;;16.00;99.90;;;;;;5026434;28;20115;-87
2022/05/31 07:39:17;;;;;;;5.30;3.80;;;16.50;99.90;;;;;;5009209;28;20056;-87
2022/05/31 07:41:45;;;;;;;6.22;3.83;;;17.00;99.90;;;;;;4997000;28;20118;-86
2022/05/31 07:44:13;;;;;;;3.85;3.40;;;17.50;99.90;;;;;;5047651;28;20064;-87
2022/05/31 07:46:39;;;;;;;5.30;2.97;;;18.00;99.90;;;;;;5013105;28;20044;-88
2022/05/31 07:49:06;;;;;;;5.75;2.30;;;18.30;99.90;;;;;;5030084;28;20045;-87
2022/05/31 07:51:32;;;;;;;3.75;2.60;;;18.60;99.90;;;;;;5028344;28;20064;-87
2022/05/31 07:53:58;;;;;;;5.00;2.60;;;18.70;97.70;;;;;;5014631;28;20049;-87
2022/05/31 07:56:24;;;;;;;5.53;2.30;;;18.80;93.20;;;;;;4996626;28;20056;-87
2022/05/31 07:58:50;;;;;;;5.68;2.50;;;18.90;96.00;;;;;;5013219;28;20045;-87
2022/05/31 08:01:25;;;;;;;4.82;2.40;;;19.20;93.30;;;;;;5029639;28;20057;-87
2022/05/31 08:03:52;;;;;;;5.55;2.67;;;19.50;79.40;;;;;;5029224;28;20122;-87
2022/05/31 08:06:23;;;;;;;4.93;2.70;;;19.60;87.90;;;;;;5028797;28;20487;-87
2022/05/31 08:08:49;;;;;;;4.60;2.38;;;19.90;85.20;;;;;;4997149;28;20033;-88
2022/05/31 08:11:25;;;;;;;5.43;2.67;;;20.10;80.20;;;;;;5045217;28;20053;-88
2022/05/31 08:13:51;;;;;;;3.17;2.22;;;20.30;76.70;;;;;;5019801;28;20045;-87
2022/05/31 08:16:19;;;;;;;4.10;1.90;;;20.50;74.60;;;;;;5022119;28;20033;-88
2022/05/31 08:18:45;;;;;;;3.75;2.20;;;20.70;70.60;;;;;;5026625;28;21794;-88
2022/05/31 08:21:16;;;;;;;6.13;2.10;;;20.90;70.70;;;;;;5011286;28;20134;-89
2022/05/31 08:23:43;;;;;;;5.25;2.25;;;21.30;70.20;;;;;;5058201;28;20137;-88
2022/05/31 08:26:08;;;;;;;4.15;2.00;;;21.50;65.30;;;;;;5012710;28;20517;-88
2022/05/31 08:28:34;;;;;;;4.50;1.90;;;21.50;59.40;;;;;;5041308;28;20124;-88
2022/05/31 08:31:03;;;;;;;2.97;1.70;;;21.60;61.00;;;;;;5011201;28;20049;-88
2022/05/31 08:33:29;;;;;;;4.43;1.88;;;21.90;60.30;;;;;;5021250;28;20034;-88
2022/05/31 08:35:55;;;;;;;3.03;1.50;;;22.20;59.60;;;;;;5009775;28;20061;-86
2022/05/31 08:38:22;;;;;;;3.75;1.83;;;22.50;55.50;;;;;;5016699;28;20053;-90
2022/05/31 08:41:16;;;;;;;5.72;1.83;;;22.80;55.70;;;;;;5044706;28;20250;-88
2022/05/31 08:43:45;;;;;;;3.67;1.80;;;23.10;56.30;;;;;;5028700;28;20056;-88
2022/05/31 08:46:23;;;;;;;4.15;2.15;;;23.30;52.80;;;;;;5012958;28;20057;-89
2022/05/31 08:49:18;;;;;;;2.85;1.70;;;23.60;53.30;;;;;;5027387;28;20041;-88
2022/05/31 08:52:05;;;;;;;3.50;2.15;;;24.10;55.70;;;;;;5012775;28;20050;-87
2022/05/31 08:57:37;;;;;;;5.57;2.30;;;24.20;48.00;;;;;;5022921;28;20398;-89
2022/05/31 09:00:19;;;;;;;3.45;2.17;;;23.80;49.80;;;;;;5011955;28;20049;-88
2022/05/31 09:02:49;;;;;;;4.68;2.60;;;24.40;49.00;;;;;;5010542;28;20772;-88
2022/05/31 09:05:24;;;;;;;5.65;2.45;;;24.90;46.60;;;;;;5060502;28;20076;-89
2022/05/31 09:08:13;;;;;;;4.15;2.38;;;24.80;43.10;;;;;;5011171;28;20057;-88
2022/05/31 09:11:13;;;;;;;5.68;2.40;;;24.50;45.10;;;;;;5005942;28;20053;-89
2022/05/31 09:14:17;;;;;;;4.00;2.95;;;23.40;47.80;;;;;;5006588;28;20081;-88
2022/05/31 09:17:01;;;;;;;5.53;3.47;;;22.40;52.20;;;;;;4989768;28;20057;-88
2022/05/31 09:19:53;;;;;;;3.85;3.22;;;21.90;51.50;;;;;;5017377;28;20477;-88
2022/05/31 09:22:19;;;;;;;6.57;3.60;;;21.50;51.70;;;;;;5043123;28;20124;-87
2022/05/31 09:24:45;;;;;;;5.40;4.00;;;21.10;51.30;;;;;;5022783;28;20140;-87
2022/05/31 09:27:24;;;;;;;6.63;4.00;;;20.80;50.30;;;;;;5025011;28;20052;-89
2022/05/31 09:30:03;;;;;;;6.43;3.80;;;20.30;46.50;;;;;;5026889;28;20053;-89
2022/05/31 09:32:57;;;;;;;5.30;3.70;;;19.60;50.60;;;;;;5028456;28;20052;-89
2022/05/31 09:35:52;;;;;;;6.25;4.10;;;19.10;48.10;;;;;;5015229;28;20048;-89
2022/05/31 09:38:44;;;;;;;7.53;4.05;;;18.70;51.60;;;;;;5049128;28;20049;-88
2022/05/31 09:41:41;;;;;;;5.95;4.13;;;18.40;54.20;;;;;;5031508;28;20053;-88
2022/05/31 09:44:20;;;;;;;3.95;3.08;;;18.30;57.70;;;;;;5049434;28;20081;-88
2022/05/31 09:46:53;;;;;;;5.80;3.30;;;18.20;57.30;;;;;;5024919;28;20059;-88
2022/05/31 09:49:33;;;;;;;5.35;3.15;;;18.20;56.70;;;;;;5011769;28;20033;-88
2022/05/31 09:51:59;;;;;;;5.85;3.75;;;18.30;58.10;;;;;;5026271;28;20072;-88
2022/05/31 09:57:30;;;;;;;6.30;3.03;;;19.00;56.40;;;;;;5006785;28;20049;-87
2022/05/31 10:00:15;;;;;;;6.47;3.17;;;19.80;58.40;;;;;;4987054;28;20056;-87
2022/05/31 10:02:42;;;;;;;5.72;3.20;;;20.30;53.00;;;;;;5024832;28;20061;-88
2022/05/31 10:05:16;;;;;;;6.07;3.55;;;20.40;50.50;;;;;;4999038;28;20474;-88
2022/05/31 10:07:42;;;;;;;6.25;3.80;;;20.60;51.20;;;;;;5006435;28;20061;-88
2022/05/31 10:10:17;;;;;;;7.75;3.92;;;20.70;51.30;;;;;;5033044;28;20048;-86
2022/05/31 10:12:58;;;;;;;7.18;3.97;;;20.80;51.30;;;;;;5027589;28;20099;-89
2022/05/31 10:15:45;;;;;;;6.65;3.75;;;20.90;50.90;;;;;;5048988;28;20128;-89
2022/05/31 10:18:24;;;;;;;5.10;3.58;;;21.10;52.20;;;;;;5030724;28;20135;-89
2022/05/31 10:20:56;;;;;;;5.43;4.07;;;21.50;50.90;;;;;;5021195;28;20087;-90
2022/05/31 10:23:29;;;;;;;7.55;3.67;;;21.60;48.90;;;;;;5001208;28;20049;-90
2022/05/31 10:25:58;;;;;;;5.15;3.47;;;21.70;48.80;;;;;;5000660;28;20041;-89
2022/05/31 10:28:30;;;;;;;6.45;3.70;;;21.70;48.80;;;;;;5020524;28;20091;-90
2022/05/31 10:31:26;;;;;;;4.82;3.38;;;21.60;47.80;;;;;;5012778;28;20084;-90
2022/05/31 10:33:55;;;;;;;4.05;3.22;;;21.50;47.00;;;;;;5024580;28;20049;-89
2022/05/31 10:36:25;;;;;;;5.32;3.30;;;21.40;47.80;;;;;;5005110;28;20769;-89
2022/05/31 10:38:52;;;;;;;4.80;2.80;;;21.30;48.30;;;;;;5016157;28;20060;-89
2022/05/31 10:41:25;;;;;;;6.07;3.20;;;21.30;49.10;;;;;;5024283;28;20045;-89
2022/05/31 10:43:58;;;;;;;5.20;2.83;;;21.30;48.70;;;;;;5021356;28;20052;-89
2022/05/31 10:46:28;;;;;;;5.63;3.05;;;21.40;48.00;;;;;;5004369;28;20042;-87
2022/05/31 10:48:56;;;;;;;4.38;2.65;;;21.60;47.50;;;;;;5022085;28;20051;-87
2022/05/31 10:51:34;;;;;;;5.20;2.65;;;21.70;47.20;;;;;;5013077;28;20050;-87
2022/05/31 10:54:17;;;;;;;4.80;2.70;;;21.80;47.20;;;;;;5025871;28;20490;-87
2022/05/31 10:56:57;;;;;;;5.70;2.70;;;21.70;46.50;;;;;;5003472;28;20069;-88
2022/05/31 10:59:32;;;;;;;6.68;2.80;;;21.50;46.80;;;;;;5050681;28;20049;-88
2022/05/31 11:02:32;;;;;;;5.60;3.10;;;21.30;47.10;;;;;;5016290;28;20053;-88
2022/05/31 11:05:11;;;;;;;6.10;3.00;;;21.00;46.80;;;;;;5019983;28;20435;-88
2022/05/31 11:11:28;;;;;;;5.53;2.72;;;20.80;48.30;;;;;;5006366;28;20055;-89
2022/05/31 11:13:52;;;;;;;4.72;3.10;;;20.70;46.20;;;;;;5029992;28;20084;-89
2022/05/31 11:16:23;;;;;;;5.63;2.88;;;20.90;46.70;;;;;;5026912;28;20570;-88
2022/05/31 11:19:05;;;;;;;5.22;3.03;;;21.10;46.30;;;;;;5054326;28;20380;-90
2022/05/31 11:21:34;;;;;;;4.47;2.85;;;21.20;45.80;;;;;;5031432;28;20041;-89
2022/05/31 11:24:31;;;;;;;4.50;2.88;;;21.30;45.40;;;;;;5026740;28;20081;-89
2022/05/31 11:27:05;;;;;;;8.00;3.42;;;21.50;46.70;;;;;;5029345;28;20071;-89
2022/05/31 11:29:45;;;;;;;4.82;3.00;;;22.50;43.40;;;;;;5031623;28;20044;-88
2022/05/31 11:32:24;;;;;;;5.97;2.78;;;24.70;42.50;;;;;;5012054;28;20044;-89
2022/05/31 11:35:20;;;;;;;3.25;2.47;;;26.60;38.90;;;;;;5013703;28;20051;-89
2022/05/31 11:37:57;;;;;;;5.47;2.90;;;28.40;39.70;;;;;;5010463;28;20145;-89
2022/05/31 11:40:46;;;;;;;4.95;2.92;;;30.00;33.80;;;;;;5016539;28;20092;-86
2022/05/31 11:43:42;;;;;;;4.80;3.20;;;30.90;29.70;;;;;;5024747;28;20057;-89
2022/05/31 11:46:26;;;;;;;4.40;2.95;;;31.00;30.10;;;;;;5020339;28;20403;-88
2022/05/31 11:49:06;;;;;;;4.43;2.65;;;30.60;29.30;;;;;;5014340;28;20120;-88
2022/05/31 11:52:13;;;;;;;5.38;2.60;;;29.80;28.30;;;;;;5028280;28;20125;-88
2022/05/31 11:55:28;;;;;;;4.57;2.97;;;28.30;30.20;;;;;;4972969;28;20372;-89
2022/05/31 11:58:16;;;;;;;5.45;2.58;;;27.30;31.20;;;;;;4984049;28;20295;-88
2022/05/31 12:00:51;;;;;;;5.47;2.95;;;26.60;29.70;;;;;;5027288;28;20045;-89
2022/05/31 12:03:26;;;;;;;6.03;3.22;;;25.90;32.50;;;;;;5041484;28;20499;-89
2022/05/31 12:06:00;;;;;;;4.63;2.70;;;25.60;31.90;;;;;;5028532;28;20037;-89
2022/05/31 12:08:37;;;;;;;5.93;2.83;;;25.50;32.90;;;;;;5013170;28;20219;-89
2022/05/31 12:11:10;;;;;;;4.50;2.95;;;25.30;33.00;;;;;;5028917;28;20121;-89
2022/05/31 12:13:44;;;;;;;4.70;3.13;;;25.00;33.50;;;;;;5012089;28;20056;-89
2022/05/31 12:16:10;;;;;;;8.13;3.25;;;24.60;34.30;;;;;;5011368;28;20049;-88
2022/05/31 12:18:55;;;;;;;3.35;2.35;;;24.30;33.30;;;;;;5013236;28;20414;-89
2022/05/31 12:21:35;;;;;;;5.20;2.72;;;23.90;35.10;;;;;;5001759;28;20053;-89
2022/05/31 12:24:15;;;;;;;6.00;2.92;;;23.50;35.70;;;;;;5022626;28;20092;-88
2022/05/31 12:27:02;;;;;;;3.65;2.55;;;23.20;35.30;;;;;;5011941;28;20538;-88
2022/05/31 12:29:27;;;;;;;;;;;22.90;34.10;;;;;;5022334;28;20093;-88
2022/05/31 12:32:32;;;;;;;4.28;2.47;;;22.30;34.70;;;;;;5029133;28;19921;-87
2022/05/31 12:35:00;;;;;;;5.85;2.50;;;21.80;38.40;;;;;;5063483;28;20099;-88
2022/05/31 12:37:26;;;;;;;10.15;9.15;;;21.30;39.40;;;;;;4995807;28;20049;-87
2022/05/31 12:40:44;;;;;;;5.95;2.90;;;21.20;40.30;;;;;;5028799;28;20515;-88
2022/05/31 12:43:11;;;;;;;5.97;3.40;;;21.00;40.60;;;;;;5020790;28;20061;-88
2022/05/31 12:45:43;;;;;;;5.28;3.30;;;20.70;41.40;;;;;;5018902;28;20045;-88
2022/05/31 12:48:14;;;;;;;5.75;2.80;;;20.50;41.40;;;;;;5026859;28;20065;-88
2022/05/31 12:50:54;;;;;;;6.30;3.17;;;20.40;41.50;;;;;;5027290;28;20045;-87
2022/05/31 12:53:43;;;;;;;3.83;2.80;;;20.20;41.20;;;;;;5041399;28;20597;-88
2022/05/31 12:56:36;;;;;;;4.35;2.75;;;20.10;41.00;;;;;;5007569;28;20668;-88
2022/05/31 12:59:06;;;;;;;4.35;2.65;;;20.00;41.60;;;;;;5015799;28;20432;-88
2022/05/31 13:01:35;;;;;;;5.40;3.03;;;19.90;42.00;;;;;;5027088;28;20487;-88
2022/05/31 13:04:29;;;;;;;7.45;3.15;;;19.80;42.00;;;;;;5054464;28;20495;-88
2022/05/31 13:07:02;;;;;;;3.97;2.60;;;19.80;42.60;;;;;;5032282;28;20064;-87
2022/05/31 13:09:39;;;;;;;4.65;3.03;;;19.60;42.90;;;;;;5022167;28;20045;-88
2022/05/31 13:19:34;;;;;;;6.10;3.35;;;19.40;43.20;;;;;;5017247;28;20092;-87
2022/05/31 13:21:11;;;;;;;4.60;3.35;;;19.00;42.80;;;;;;5018268;28;20053;-87
2022/05/31 13:23:41;;;;;;;5.63;3.17;;;18.70;42.50;;;;;;5012989;28;20049;-89
2022/05/31 13:26:10;;;;;;;7.05;3.60;;;18.60;42.90;;;;;;5016784;28;20107;-87
2022/05/31 13:28:41;;;;;;;5.00;3.95;;;18.50;43.90;;;;;;5013047;28;20099;-87
2022/05/31 13:31:16;;;;;;;4.90;3.50;;;18.30;44.50;;;;;;5016091;28;20088;-88
2022/05/31 13:33:44;;;;;;;5.95;3.40;;;18.20;44.30;;;;;;5022169;28;20041;-88
2022/05/31 13:36:24;;;;;;;7.30;4.68;;;18.00;44.00;;;;;;4997336;28;20509;-88